sensor_id;sensor_type;location;lat;lon;timestamp;P1;durP1;ratioP1;P2;durP2;ratioP2
77802;SDS011;66993;48.256;16.422;2023-02-01T00:03:34;4.4;;;2.8;;
77802;SDS011;66993;48.256;16.422;2023-02-01T00:08:35;5.0;;;3.5;;
77802;SDS011;66993;48.256;16.422;2023-02-01T00:13:37;3.7;;;2.6;;
77802;SDS011;66993;48.256;16.422;2023-02-01T00:18:38;5.4;;;3.6;;
77802;SDS011;66993;48.256;16.422;2023-02-01T00:23:39;3.9;;;3.0;;
77802;SDS011;66993;48.256;16.422;2023-02-01T00:28:40;3.7;;;2.6;;
77802;SDS011;66993;48.256;16.422;2023-02-01T00:33:41;4.2;;;2.7;;
77802;SDS011;66993;48.256;16.422;2023-02-01T00:38:43;4.2;;;2.4;;
77802;SDS011;66993;48.256;16.422;2023-02-01T00:43:44;4.5;;;3.2;;
77802;SDS011;66993;48.256;16.422;2023-02-01T00:48:45;3.9;;;2.6;;
77802;SDS011;66993;48.256;16.422;2023-02-01T00:53:46;3.9;;;2.5;;
77802;SDS011;66993;48.256;16.422;2023-02-01T00:58:47;4.4;;;3.1;;
77802;SDS011;66993;48.256;16.422;2023-02-01T01:03:49;4.6;;;3.2;;
77802;SDS011;66993;48.256;16.422;2023-02-01T01:08:50;4.6;;;3.5;;
77802;SDS011;66993;48.256;16.422;2023-02-01T01:13:51;4.4;;;3.4;;
77802;SDS011;66993;48.256;16.422;2023-02-01T01:18:52;5.3;;;3.0;;
77802;SDS011;66993;48.256;16.422;2023-02-01T01:23:54;4.8;;;3.4;;
77802;SDS011;66993;48.256;16.422;2023-02-01T01:28:55;5.2;;;3.4;;
77802;SDS011;66993;48.256;16.422;2023-02-01T01:33:57;5.2;;;3.6;;
77802;SDS011;66993;48.256;16.422;2023-02-01T01:38:57;4.1;;;2.6;;
77802;SDS011;66993;48.256;16.422;2023-02-01T01:43:59;3.1;;;2.5;;
77802;SDS011;66993;48.256;16.422;2023-02-01T01:49:02;3.7;;;2.7;;
77802;SDS011;66993;48.256;16.422;2023-02-01T01:54:01;4.1;;;2.6;;
77802;SDS011;66993;48.256;16.422;2023-02-01T01:59:02;3.4;;;3.1;;
77802;SDS011;66993;48.256;16.422;2023-02-01T02:04:03;4.6;;;3.0;;
77802;SDS011;66993;48.256;16.422;2023-02-01T02:09:05;4.2;;;2.8;;
77802;SDS011;66993;48.256;16.422;2023-02-01T02:14:06;4.5;;;3.4;;
77802;SDS011;66993;48.256;16.422;2023-02-01T02:34:12;4.9;;;2.8;;
77802;SDS011;66993;48.256;16.422;2023-02-01T02:39:15;4.4;;;3.4;;
77802;SDS011;66993;48.256;16.422;2023-02-01T02:44:15;4.6;;;2.9;;
77802;SDS011;66993;48.256;16.422;2023-02-01T02:49:15;5.1;;;3.6;;
77802;SDS011;66993;48.256;16.422;2023-02-01T02:54:17;4.8;;;3.2;;
77802;SDS011;66993;48.256;16.422;2023-02-01T02:59:18;4.7;;;2.8;;
77802;SDS011;66993;48.256;16.422;2023-02-01T03:04:18;4.1;;;3.0;;
77802;SDS011;66993;48.256;16.422;2023-02-01T03:09:22;4.3;;;3.1;;
77802;SDS011;66993;48.256;16.422;2023-02-01T03:14:21;4.5;;;3.5;;
77802;SDS011;66993;48.256;16.422;2023-02-01T03:19:23;4.1;;;3.1;;
77802;SDS011;66993;48.256;16.422;2023-02-01T03:24:24;4.1;;;3.3;;
77802;SDS011;66993;48.256;16.422;2023-02-01T03:29:25;3.9;;;3.0;;
77802;SDS011;66993;48.256;16.422;2023-02-01T03:34:26;5.1;;;2.8;;
77802;SDS011;66993;48.256;16.422;2023-02-01T03:39:29;4.8;;;3.6;;
77802;SDS011;66993;48.256;16.422;2023-02-01T03:44:29;4.3;;;2.9;;
77802;SDS011;66993;48.256;16.422;2023-02-01T03:49:31;4.5;;;2.9;;
77802;SDS011;66993;48.256;16.422;2023-02-01T03:54:31;4.7;;;3.2;;
77802;SDS011;66993;48.256;16.422;2023-02-01T03:59:32;5.1;;;3.0;;
77802;SDS011;66993;48.256;16.422;2023-02-01T04:04:33;5.4;;;3.2;;
77802;SDS011;66993;48.256;16.422;2023-02-01T04:09:34;4.2;;;2.9;;
77802;SDS011;66993;48.256;16.422;2023-02-01T04:14:36;4.9;;;2.8;;
77802;SDS011;66993;48.256;16.422;2023-02-01T04:19:37;5.3;;;3.5;;
77802;SDS011;66993;48.256;16.422;2023-02-01T04:24:38;5.7;;;3.8;;
77802;SDS011;66993;48.256;16.422;2023-02-01T04:29:39;5.6;;;4.1;;
77802;SDS011;66993;48.256;16.422;2023-02-01T04:34:41;5.9;;;4.0;;
77802;SDS011;66993;48.256;16.422;2023-02-01T04:39:42;6.9;;;3.9;;
77802;SDS011;66993;48.256;16.422;2023-02-01T04:44:43;6.1;;;4.1;;
77802;SDS011;66993;48.256;16.422;2023-02-01T04:49:44;5.2;;;3.9;;
77802;SDS011;66993;48.256;16.422;2023-02-01T04:54:46;6.8;;;4.5;;
77802;SDS011;66993;48.256;16.422;2023-02-01T04:59:47;5.7;;;4.0;;
77802;SDS011;66993;48.256;16.422;2023-02-01T05:04:48;6.1;;;4.0;;
77802;SDS011;66993;48.256;16.422;2023-02-01T05:09:49;6.3;;;3.6;;
77802;SDS011;66993;48.256;16.422;2023-02-01T05:14:50;5.7;;;3.8;;
77802;SDS011;66993;48.256;16.422;2023-02-01T05:19:52;7.7;;;4.6;;
77802;SDS011;66993;48.256;16.422;2023-02-01T05:24:53;6.0;;;3.8;;
77802;SDS011;66993;48.256;16.422;2023-02-01T05:29:54;6.0;;;3.3;;
77802;SDS011;66993;48.256;16.422;2023-02-01T05:34:55;5.2;;;3.5;;
77802;SDS011;66993;48.256;16.422;2023-02-01T05:39:57;5.6;;;3.9;;
77802;SDS011;66993;48.256;16.422;2023-02-01T05:44:58;9.5;;;5.7;;
77802;SDS011;66993;48.256;16.422;2023-02-01T05:49:59;5.2;;;3.9;;
77802;SDS011;66993;48.256;16.422;2023-02-01T05:55:00;6.4;;;3.9;;
77802;SDS011;66993;48.256;16.422;2023-02-01T06:00:02;6.9;;;4.2;;
77802;SDS011;66993;48.256;16.422;2023-02-01T06:05:03;5.8;;;4.0;;
77802;SDS011;66993;48.256;16.422;2023-02-01T06:10:04;6.4;;;4.3;;
77802;SDS011;66993;48.256;16.422;2023-02-01T06:15:06;6.0;;;3.9;;
77802;SDS011;66993;48.256;16.422;2023-02-01T06:20:06;5.8;;;3.6;;
77802;SDS011;66993;48.256;16.422;2023-02-01T06:25:09;6.3;;;4.5;;
77802;SDS011;66993;48.256;16.422;2023-02-01T06:30:09;5.8;;;4.0;;
77802;SDS011;66993;48.256;16.422;2023-02-01T06:35:10;6.0;;;4.5;;
77802;SDS011;66993;48.256;16.422;2023-02-01T06:40:11;6.1;;;4.4;;
77802;SDS011;66993;48.256;16.422;2023-02-01T06:45:12;6.2;;;3.8;;
77802;SDS011;66993;48.256;16.422;2023-02-01T06:50:14;7.0;;;4.2;;
77802;SDS011;66993;48.256;16.422;2023-02-01T06:55:15;6.1;;;4.3;;
77802;SDS011;66993;48.256;16.422;2023-02-01T07:00:16;5.4;;;4.4;;
77802;SDS011;66993;48.256;16.422;2023-02-01T07:05:17;6.1;;;4.0;;
77802;SDS011;66993;48.256;16.422;2023-02-01T07:10:19;5.5;;;3.8;;
77802;SDS011;66993;48.256;16.422;2023-02-01T07:15:20;6.2;;;4.2;;
77802;SDS011;66993;48.256;16.422;2023-02-01T07:20:21;5.1;;;3.5;;
77802;SDS011;66993;48.256;16.422;2023-02-01T07:25:22;6.0;;;4.1;;
77802;SDS011;66993;48.256;16.422;2023-02-01T07:30:23;5.3;;;3.8;;
77802;SDS011;66993;48.256;16.422;2023-02-01T07:35:25;5.9;;;3.6;;
77802;SDS011;66993;48.256;16.422;2023-02-01T07:40:26;5.6;;;3.6;;
77802;SDS011;66993;48.256;16.422;2023-02-01T07:45:27;4.4;;;3.5;;
77802;SDS011;66993;48.256;16.422;2023-02-01T07:50:29;5.1;;;3.8;;
77802;SDS011;66993;48.256;16.422;2023-02-01T07:55:30;5.1;;;3.6;;
77802;SDS011;66993;48.256;16.422;2023-02-01T08:00:31;6.1;;;3.1;;
77802;SDS011;66993;48.256;16.422;2023-02-01T08:05:32;6.1;;;4.2;;
77802;SDS011;66993;48.256;16.422;2023-02-01T08:10:33;5.7;;;3.7;;
77802;SDS011;66993;48.256;16.422;2023-02-01T08:15:35;5.7;;;4.4;;
77802;SDS011;66993;48.256;16.422;2023-02-01T08:20:36;5.2;;;3.6;;
77802;SDS011;66993;48.256;16.422;2023-02-01T08:25:37;4.4;;;3.2;;
77802;SDS011;66993;48.256;16.422;2023-02-01T08:30:39;5.5;;;3.7;;
77802;SDS011;66993;48.256;16.422;2023-02-01T08:35:39;6.2;;;4.3;;
77802;SDS011;66993;48.256;16.422;2023-02-01T08:40:41;5.7;;;4.1;;
77802;SDS011;66993;48.256;16.422;2023-02-01T08:45:42;6.0;;;4.1;;
77802;SDS011;66993;48.256;16.422;2023-02-01T08:50:43;5.6;;;3.9;;
77802;SDS011;66993;48.256;16.422;2023-02-01T08:55:45;5.6;;;3.8;;
77802;SDS011;66993;48.256;16.422;2023-02-01T09:00:46;7.4;;;4.1;;
77802;SDS011;66993;48.256;16.422;2023-02-01T09:05:47;7.1;;;4.1;;
77802;SDS011;66993;48.256;16.422;2023-02-01T09:10:48;7.5;;;4.1;;
77802;SDS011;66993;48.256;16.422;2023-02-01T09:15:50;6.0;;;3.3;;
77802;SDS011;66993;48.256;16.422;2023-02-01T09:20:50;5.7;;;4.2;;
77802;SDS011;66993;48.256;16.422;2023-02-01T09:25:52;7.0;;;4.0;;
77802;SDS011;66993;48.256;16.422;2023-02-01T09:30:55;6.8;;;4.3;;
77802;SDS011;66993;48.256;16.422;2023-02-01T09:35:56;7.9;;;4.3;;
77802;SDS011;66993;48.256;16.422;2023-02-01T09:40:55;7.4;;;4.4;;
77802;SDS011;66993;48.256;16.422;2023-02-01T09:45:59;7.9;;;5.0;;
77802;SDS011;66993;48.256;16.422;2023-02-01T09:50:59;6.9;;;4.4;;
77802;SDS011;66993;48.256;16.422;2023-02-01T09:56:00;6.4;;;5.0;;
77802;SDS011;66993;48.256;16.422;2023-02-01T10:01:01;5.8;;;4.0;;
77802;SDS011;66993;48.256;16.422;2023-02-01T10:06:10;5.9;;;3.7;;
77802;SDS011;66993;48.256;16.422;2023-02-01T10:11:06;5.8;;;3.9;;
77802;SDS011;66993;48.256;16.422;2023-02-01T10:16:09;4.4;;;3.0;;
77802;SDS011;66993;48.256;16.422;2023-02-01T10:21:08;5.9;;;3.8;;
77802;SDS011;66993;48.256;16.422;2023-02-01T10:26:09;4.4;;;2.8;;
77802;SDS011;66993;48.256;16.422;2023-02-01T10:31:08;4.2;;;3.1;;
77802;SDS011;66993;48.256;16.422;2023-02-01T10:36:12;4.1;;;3.0;;
77802;SDS011;66993;48.256;16.422;2023-02-01T10:41:12;3.6;;;2.6;;
77802;SDS011;66993;48.256;16.422;2023-02-01T10:46:12;4.6;;;3.2;;
77802;SDS011;66993;48.256;16.422;2023-02-01T10:51:14;3.9;;;2.7;;
77802;SDS011;66993;48.256;16.422;2023-02-01T10:56:19;5.0;;;2.7;;
77802;SDS011;66993;48.256;16.422;2023-02-01T11:01:16;4.5;;;2.6;;
77802;SDS011;66993;48.256;16.422;2023-02-01T11:06:19;3.2;;;2.5;;
77802;SDS011;66993;48.256;16.422;2023-02-01T11:11:19;3.5;;;3.0;;
77802;SDS011;66993;48.256;16.422;2023-02-01T11:16:19;4.8;;;2.8;;
77802;SDS011;66993;48.256;16.422;2023-02-01T11:21:21;3.4;;;2.3;;
77802;SDS011;66993;48.256;16.422;2023-02-01T11:26:22;4.1;;;2.7;;
77802;SDS011;66993;48.256;16.422;2023-02-01T11:31:23;4.2;;;3.0;;
77802;SDS011;66993;48.256;16.422;2023-02-01T11:36:26;4.6;;;3.2;;
77802;SDS011;66993;48.256;16.422;2023-02-01T11:41:26;4.6;;;3.5;;
77802;SDS011;66993;48.256;16.422;2023-02-01T11:46:28;5.0;;;2.8;;
77802;SDS011;66993;48.256;16.422;2023-02-01T11:51:32;5.1;;;3.4;;
77802;SDS011;66993;48.256;16.422;2023-02-01T11:56:31;5.0;;;3.7;;
77802;SDS011;66993;48.256;16.422;2023-02-01T12:01:36;5.5;;;4.0;;
77802;SDS011;66993;48.256;16.422;2023-02-01T12:06:35;5.8;;;4.0;;
77802;SDS011;66993;48.256;16.422;2023-02-01T12:11:37;6.3;;;3.9;;
77802;SDS011;66993;48.256;16.422;2023-02-01T12:16:37;6.7;;;5.0;;
77802;SDS011;66993;48.256;16.422;2023-02-01T12:21:41;6.8;;;5.0;;
77802;SDS011;66993;48.256;16.422;2023-02-01T12:26:45;6.8;;;5.0;;
77802;SDS011;66993;48.256;16.422;2023-02-01T12:31:43;5.7;;;4.1;;
77802;SDS011;66993;48.256;16.422;2023-02-01T12:36:41;5.9;;;3.8;;
77802;SDS011;66993;48.256;16.422;2023-02-01T12:41:47;3.9;;;3.0;;
77802;SDS011;66993;48.256;16.422;2023-02-01T12:46:43;4.6;;;3.4;;
77802;SDS011;66993;48.256;16.422;2023-02-01T12:51:44;4.7;;;3.3;;
77802;SDS011;66993;48.256;16.422;2023-02-01T12:56:46;4.4;;;2.8;;
77802;SDS011;66993;48.256;16.422;2023-02-01T13:01:46;3.9;;;1.8;;
77802;SDS011;66993;48.256;16.422;2023-02-01T13:06:48;2.6;;;2.1;;
77802;SDS011;66993;48.256;16.422;2023-02-01T13:11:48;3.2;;;2.4;;
77802;SDS011;66993;48.256;16.422;2023-02-01T13:16:51;3.9;;;2.7;;
77802;SDS011;66993;48.256;16.422;2023-02-01T13:21:52;3.1;;;2.2;;
77802;SDS011;66993;48.256;16.422;2023-02-01T13:26:53;4.2;;;2.0;;
77802;SDS011;66993;48.256;16.422;2023-02-01T13:31:58;4.8;;;2.2;;
77802;SDS011;66993;48.256;16.422;2023-02-01T13:36:58;3.3;;;1.9;;
77802;SDS011;66993;48.256;16.422;2023-02-01T13:41:57;3.8;;;2.6;;
77802;SDS011;66993;48.256;16.422;2023-02-01T13:46:58;3.0;;;1.7;;
77802;SDS011;66993;48.256;16.422;2023-02-01T13:51:59;2.5;;;1.4;;
77802;SDS011;66993;48.256;16.422;2023-02-01T13:57:00;2.8;;;1.8;;
77802;SDS011;66993;48.256;16.422;2023-02-01T14:07:02;3.0;;;2.0;;
77802;SDS011;66993;48.256;16.422;2023-02-01T14:27:15;2.6;;;1.5;;
77802;SDS011;66993;48.256;16.422;2023-02-01T14:32:14;2.4;;;2.0;;
77802;SDS011;66993;48.256;16.422;2023-02-01T14:37:11;2.6;;;1.9;;
77802;SDS011;66993;48.256;16.422;2023-02-01T14:42:18;3.4;;;1.8;;
77802;SDS011;66993;48.256;16.422;2023-02-01T14:52:15;3.8;;;2.0;;
77802;SDS011;66993;48.256;16.422;2023-02-01T14:57:15;3.0;;;1.7;;
77802;SDS011;66993;48.256;16.422;2023-02-01T15:02:18;2.0;;;1.4;;
77802;SDS011;66993;48.256;16.422;2023-02-01T15:07:17;2.0;;;1.2;;
77802;SDS011;66993;48.256;16.422;2023-02-01T15:12:22;1.7;;;1.5;;
77802;SDS011;66993;48.256;16.422;2023-02-01T15:17:21;2.2;;;1.4;;
77802;SDS011;66993;48.256;16.422;2023-02-01T15:22:22;3.3;;;2.1;;
77802;SDS011;66993;48.256;16.422;2023-02-01T15:27:22;3.5;;;1.6;;
77802;SDS011;66993;48.256;16.422;2023-02-01T15:32:28;3.6;;;2.0;;
77802;SDS011;66993;48.256;16.422;2023-02-01T15:37:26;3.0;;;2.1;;
77802;SDS011;66993;48.256;16.422;2023-02-01T15:42:26;2.8;;;2.2;;
77802;SDS011;66993;48.256;16.422;2023-02-01T15:47:28;2.7;;;2.2;;
77802;SDS011;66993;48.256;16.422;2023-02-01T15:52:34;3.3;;;2.2;;
77802;SDS011;66993;48.256;16.422;2023-02-01T15:57:31;2.9;;;1.7;;
77802;SDS011;66993;48.256;16.422;2023-02-01T16:02:33;3.7;;;2.3;;
77802;SDS011;66993;48.256;16.422;2023-02-01T16:07:33;3.5;;;2.0;;
77802;SDS011;66993;48.256;16.422;2023-02-01T16:12:44;4.4;;;2.5;;
77802;SDS011;66993;48.256;16.422;2023-02-01T16:17:36;6.5;;;2.2;;
77802;SDS011;66993;48.256;16.422;2023-02-01T16:22:38;3.8;;;2.2;;
77802;SDS011;66993;48.256;16.422;2023-02-01T16:27:38;3.4;;;2.1;;
77802;SDS011;66993;48.256;16.422;2023-02-01T16:32:39;3.4;;;2.0;;
77802;SDS011;66993;48.256;16.422;2023-02-01T16:37:40;3.3;;;2.3;;
77802;SDS011;66993;48.256;16.422;2023-02-01T16:42:42;4.0;;;2.4;;
77802;SDS011;66993;48.256;16.422;2023-02-01T16:47:44;5.0;;;2.2;;
77802;SDS011;66993;48.256;16.422;2023-02-01T16:52:44;4.8;;;2.6;;
77802;SDS011;66993;48.256;16.422;2023-02-01T16:57:45;5.8;;;2.9;;
77802;SDS011;66993;48.256;16.422;2023-02-01T17:02:47;8.7;;;3.1;;
77802;SDS011;66993;48.256;16.422;2023-02-01T17:07:48;7.2;;;3.0;;
77802;SDS011;66993;48.256;16.422;2023-02-01T17:12:49;7.3;;;3.0;;
77802;SDS011;66993;48.256;16.422;2023-02-01T17:17:51;5.7;;;3.2;;
77802;SDS011;66993;48.256;16.422;2023-02-01T17:22:52;6.0;;;3.0;;
77802;SDS011;66993;48.256;16.422;2023-02-01T17:27:53;5.9;;;3.9;;
77802;SDS011;66993;48.256;16.422;2023-02-01T17:32:54;4.9;;;3.4;;
77802;SDS011;66993;48.256;16.422;2023-02-01T17:37:56;7.0;;;3.6;;
77802;SDS011;66993;48.256;16.422;2023-02-01T17:42:57;6.8;;;3.7;;
77802;SDS011;66993;48.256;16.422;2023-02-01T17:47:58;6.8;;;4.2;;
77802;SDS011;66993;48.256;16.422;2023-02-01T17:53:00;6.3;;;4.4;;
77802;SDS011;66993;48.256;16.422;2023-02-01T17:58:01;7.6;;;4.0;;
77802;SDS011;66993;48.256;16.422;2023-02-01T18:03:02;9.1;;;3.7;;
77802;SDS011;66993;48.256;16.422;2023-02-01T18:08:04;7.4;;;4.0;;
77802;SDS011;66993;48.256;16.422;2023-02-01T18:13:05;6.3;;;3.7;;
77802;SDS011;66993;48.256;16.422;2023-02-01T18:18:06;6.2;;;4.5;;
77802;SDS011;66993;48.256;16.422;2023-02-01T18:23:11;6.4;;;3.8;;
77802;SDS011;66993;48.256;16.422;2023-02-01T18:28:09;7.3;;;3.2;;
77802;SDS011;66993;48.256;16.422;2023-02-01T18:33:10;6.8;;;4.0;;
77802;SDS011;66993;48.256;16.422;2023-02-01T18:38:11;7.1;;;3.7;;
77802;SDS011;66993;48.256;16.422;2023-02-01T18:43:12;6.6;;;4.4;;
77802;SDS011;66993;48.256;16.422;2023-02-01T18:48:14;6.8;;;4.1;;
77802;SDS011;66993;48.256;16.422;2023-02-01T18:53:16;11.5;;;4.6;;
77802;SDS011;66993;48.256;16.422;2023-02-01T18:58:16;12.2;;;5.1;;
77802;SDS011;66993;48.256;16.422;2023-02-01T19:03:18;9.5;;;4.3;;
77802;SDS011;66993;48.256;16.422;2023-02-01T19:08:19;7.6;;;4.6;;
77802;SDS011;66993;48.256;16.422;2023-02-01T19:13:20;8.3;;;3.8;;
77802;SDS011;66993;48.256;16.422;2023-02-01T19:18:21;9.1;;;4.0;;
77802;SDS011;66993;48.256;16.422;2023-02-01T19:23:22;8.4;;;4.0;;
77802;SDS011;66993;48.256;16.422;2023-02-01T19:28:24;7.0;;;3.8;;
77802;SDS011;66993;48.256;16.422;2023-02-01T19:33:25;8.9;;;4.8;;
77802;SDS011;66993;48.256;16.422;2023-02-01T19:38:26;9.9;;;4.5;;
77802;SDS011;66993;48.256;16.422;2023-02-01T19:43:27;10.9;;;4.1;;
77802;SDS011;66993;48.256;16.422;2023-02-01T19:48:29;7.2;;;4.2;;
77802;SDS011;66993;48.256;16.422;2023-02-01T19:53:30;7.2;;;3.6;;
77802;SDS011;66993;48.256;16.422;2023-02-01T19:58:31;9.3;;;4.5;;
77802;SDS011;66993;48.256;16.422;2023-02-01T20:03:33;7.1;;;3.5;;
77802;SDS011;66993;48.256;16.422;2023-02-01T20:08:34;7.1;;;3.3;;
77802;SDS011;66993;48.256;16.422;2023-02-01T20:13:35;6.8;;;3.3;;
77802;SDS011;66993;48.256;16.422;2023-02-01T20:18:37;6.5;;;3.4;;
77802;SDS011;66993;48.256;16.422;2023-02-01T20:23:38;7.1;;;3.4;;
77802;SDS011;66993;48.256;16.422;2023-02-01T20:28:39;6.2;;;3.2;;
77802;SDS011;66993;48.256;16.422;2023-02-01T20:33:41;5.1;;;2.6;;
77802;SDS011;66993;48.256;16.422;2023-02-01T20:38:42;5.7;;;3.5;;
77802;SDS011;66993;48.256;16.422;2023-02-01T20:43:43;6.0;;;3.5;;
77802;SDS011;66993;48.256;16.422;2023-02-01T20:48:45;6.6;;;3.8;;
77802;SDS011;66993;48.256;16.422;2023-02-01T20:53:46;6.8;;;3.6;;
77802;SDS011;66993;48.256;16.422;2023-02-01T20:58:47;6.5;;;3.1;;
77802;SDS011;66993;48.256;16.422;2023-02-01T21:03:48;7.1;;;3.5;;
77802;SDS011;66993;48.256;16.422;2023-02-01T21:08:50;6.4;;;3.6;;
77802;SDS011;66993;48.256;16.422;2023-02-01T21:13:51;6.6;;;3.5;;
77802;SDS011;66993;48.256;16.422;2023-02-01T21:18:52;6.2;;;3.0;;
77802;SDS011;66993;48.256;16.422;2023-02-01T21:23:54;5.1;;;2.7;;
77802;SDS011;66993;48.256;16.422;2023-02-01T21:28:55;8.5;;;3.3;;
77802;SDS011;66993;48.256;16.422;2023-02-01T21:33:56;7.7;;;2.9;;
77802;SDS011;66993;48.256;16.422;2023-02-01T21:38:57;6.8;;;3.8;;
77802;SDS011;66993;48.256;16.422;2023-02-01T21:43:59;6.8;;;2.9;;
77802;SDS011;66993;48.256;16.422;2023-02-01T21:49:00;6.1;;;2.4;;
77802;SDS011;66993;48.256;16.422;2023-02-01T21:54:01;6.2;;;3.0;;
77802;SDS011;66993;48.256;16.422;2023-02-01T21:59:02;6.1;;;2.4;;
77802;SDS011;66993;48.256;16.422;2023-02-01T22:04:04;7.4;;;3.6;;
77802;SDS011;66993;48.256;16.422;2023-02-01T22:09:05;5.0;;;2.6;;
77802;SDS011;66993;48.256;16.422;2023-02-01T22:14:07;7.2;;;2.5;;
77802;SDS011;66993;48.256;16.422;2023-02-01T22:19:07;6.4;;;2.9;;
77802;SDS011;66993;48.256;16.422;2023-02-01T22:24:09;6.9;;;2.9;;
77802;SDS011;66993;48.256;16.422;2023-02-01T22:29:10;5.8;;;3.2;;
77802;SDS011;66993;48.256;16.422;2023-02-01T22:34:11;6.7;;;2.8;;
77802;SDS011;66993;48.256;16.422;2023-02-01T22:39:12;4.9;;;2.5;;
77802;SDS011;66993;48.256;16.422;2023-02-01T22:44:14;5.3;;;2.9;;
77802;SDS011;66993;48.256;16.422;2023-02-01T22:49:15;6.5;;;3.1;;
77802;SDS011;66993;48.256;16.422;2023-02-01T22:54:17;6.8;;;3.4;;
77802;SDS011;66993;48.256;16.422;2023-02-01T22:59:17;6.8;;;3.1;;
77802;SDS011;66993;48.256;16.422;2023-02-01T23:04:19;2.5;;;1.6;;
77802;SDS011;66993;48.256;16.422;2023-02-01T23:09:21;2.1;;;1.8;;
77802;SDS011;66993;48.256;16.422;2023-02-01T23:14:21;2.3;;;1.9;;
77802;SDS011;66993;48.256;16.422;2023-02-01T23:19:22;2.4;;;2.2;;
77802;SDS011;66993;48.256;16.422;2023-02-01T23:24:24;2.5;;;1.7;;
77802;SDS011;66993;48.256;16.422;2023-02-01T23:29:25;3.2;;;1.5;;
77802;SDS011;66993;48.256;16.422;2023-02-01T23:34:26;3.4;;;2.3;;
77802;SDS011;66993;48.256;16.422;2023-02-01T23:39:27;2.6;;;2.2;;
77802;SDS011;66993;48.256;16.422;2023-02-01T23:44:29;3.5;;;2.2;;
77802;SDS011;66993;48.256;16.422;2023-02-01T23:49:30;3.9;;;2.2;;
77802;SDS011;66993;48.256;16.422;2023-02-01T23:54:31;4.0;;;1.8;;
77802;SDS011;66993;48.256;16.422;2023-02-01T23:59:32;3.2;;;1.8;;
